createdAt,value
2016-12-16T00:00:02.926Z,73
2016-12-16T00:01:12.939Z,72.53
2016-12-16T00:02:23.271Z,72.63
2016-12-16T00:03:33.587Z,72.68
2016-12-16T00:04:43.588Z,72.68
2016-12-16T00:05:53.922Z,72.78
2016-12-16T00:07:03.934Z,72.88
2016-12-16T00:08:14.248Z,72.88
2016-12-16T00:09:24.595Z,72.88
2016-12-16T00:10:34.641Z,72.68
2016-12-16T00:11:44.969Z,72.81
2016-12-16T00:12:54.995Z,72.63
2016-12-16T00:14:05.318Z,72.97
2016-12-16T00:15:15.023Z,72.78
2016-12-16T00:16:25.031Z,72.72
2016-12-16T00:17:35.386Z,73.1
2016-12-16T00:18:45.079Z,72.88
2016-12-16T00:19:55.401Z,73
2016-12-16T00:21:05.720Z,72.91
2016-12-16T00:22:16.048Z,72.78
2016-12-16T00:23:25.436Z,72.78
2016-12-16T00:24:34.528Z,72.91
2016-12-16T00:25:44.548Z,72.59
2016-12-16T00:26:54.553Z,72.49
2016-12-16T00:28:04.268Z,72.21
2016-12-16T00:29:14.591Z,72.72
2016-12-16T00:30:24.915Z,73
2016-12-16T00:31:34.924Z,72.02
2016-12-16T00:32:45.249Z,72.11
2016-12-16T00:33:54.977Z,72.59
2016-12-16T00:35:05.294Z,72.59
2016-12-16T00:36:15.654Z,72.59
2016-12-16T00:37:25.982Z,72.78
2016-12-16T00:38:36.303Z,72.88
2016-12-16T00:39:46.329Z,72.88
2016-12-16T00:40:56.030Z,72.68
2016-12-16T00:42:05.979Z,72.88
2016-12-16T00:43:15.994Z,72.88
2016-12-16T00:44:26.015Z,72.88
2016-12-16T00:45:36.029Z,72.88
2016-12-16T00:46:46.045Z,73.07
2016-12-16T00:47:56.062Z,72.68
2016-12-16T00:49:06.377Z,72.88
2016-12-16T00:50:16.396Z,72.59
2016-12-16T00:51:26.104Z,72.97
2016-12-16T00:52:36.453Z,72.55
2016-12-16T00:53:46.469Z,73.03
2016-12-16T00:54:56.482Z,72.74
2016-12-16T00:56:05.892Z,72.84
2016-12-16T00:57:16.217Z,72.74
2016-12-16T00:58:25.917Z,72.84
2016-12-16T00:59:36.239Z,72.84
2016-12-16T01:00:46.565Z,72.64
2016-12-16T01:01:56.300Z,72.55
2016-12-16T01:03:06.318Z,72.08
2016-12-16T01:04:16.355Z,71.98
2016-12-16T01:05:26.691Z,72.45
2016-12-16T01:06:36.700Z,72.36
2016-12-16T01:07:46.114Z,72.45
2016-12-16T01:08:56.132Z,72.55
2016-12-16T01:10:06.144Z,72.45
2016-12-16T01:11:15.851Z,72.64
2016-12-16T01:12:25.867Z,72.55
2016-12-16T01:13:36.189Z,72.45
2016-12-16T01:14:46.519Z,72.64
2016-12-16T01:15:56.547Z,72.74
2016-12-16T01:17:06.871Z,72.55
2016-12-16T01:18:16.890Z,72.93
2016-12-16T01:19:26.928Z,72.93
2016-12-16T01:20:37.258Z,72.64
2016-12-16T01:21:47.290Z,71.89
2016-12-16T01:22:57.657Z,72.08
2016-12-16T01:24:07.356Z,72.08
2016-12-16T01:25:17.385Z,72.17
2016-12-16T01:26:26.769Z,71.89
2016-12-16T01:27:37.094Z,71.98
2016-12-16T01:28:47.414Z,71.8
2016-12-16T01:29:56.499Z,71.89
2016-12-16T01:31:06.211Z,71.89
2016-12-16T01:32:16.547Z,72.45
2016-12-16T01:33:26.558Z,71.89
2016-12-16T01:34:36.894Z,72.84
2016-12-16T01:35:47.225Z,72.93
2016-12-16T01:36:57.543Z,71.89
2016-12-16T01:38:07.248Z,71.85
2016-12-16T01:39:17.245Z,71.85
2016-12-16T01:40:27.258Z,71.76
2016-12-16T01:41:37.589Z,72.04
2016-12-16T01:42:47.307Z,71.95
2016-12-16T01:43:57.317Z,71.95
2016-12-16T01:45:07.644Z,72.04
2016-12-16T01:46:17.963Z,72.04
2016-12-16T01:47:28.296Z,72.04
2016-12-16T01:48:38.629Z,72.04
2016-12-16T01:49:48.637Z,72.14
2016-12-16T01:50:58.950Z,72.04
2016-12-16T01:52:08.953Z,71.95
2016-12-16T01:53:19.282Z,72.14
2016-12-16T01:54:29.629Z,72.14
2016-12-16T01:55:39.639Z,72.23
2016-12-16T01:56:49.345Z,72.23
2016-12-16T01:57:59.677Z,72.23
2016-12-16T01:59:09.413Z,72.33
2016-12-16T02:00:19.116Z,72.23
2016-12-16T02:01:29.433Z,72.23
2016-12-16T02:02:39.459Z,72.52
2016-12-16T02:03:49.806Z,72.38
2016-12-16T02:05:00.131Z,72.42
2016-12-16T02:06:10.450Z,71.85
2016-12-16T02:07:20.461Z,72.33
2016-12-16T02:08:30.173Z,71.95
2016-12-16T02:09:40.484Z,72.19
2016-12-16T02:10:50.517Z,72.19
2016-12-16T02:12:00.838Z,71.91
2016-12-16T02:13:11.194Z,71.72
2016-12-16T02:14:21.517Z,71.81
2016-12-16T02:15:31.843Z,72
2016-12-16T02:16:42.174Z,71.72
2016-12-16T02:17:52.212Z,71.62
2016-12-16T02:19:02.222Z,72
2016-12-16T02:20:11.920Z,71.62
2016-12-16T02:21:21.937Z,71.91
2016-12-16T02:22:31.957Z,71.62
2016-12-16T02:23:41.974Z,71.91
2016-12-16T02:24:52.302Z,71.62
2016-12-16T02:26:02.659Z,71.62
2016-12-16T02:27:12.668Z,72
2016-12-16T02:28:22.686Z,71.72
2016-12-16T02:29:33.006Z,71.62
2016-12-16T02:30:43.340Z,71.91
2016-12-16T02:31:53.345Z,71.81
2016-12-16T02:33:03.705Z,71.91
2016-12-16T02:34:14.026Z,72
2016-12-16T02:35:24.030Z,71.72
2016-12-16T02:36:34.038Z,71.72
2016-12-16T02:37:44.379Z,72
2016-12-16T02:38:54.384Z,71.91
2016-12-16T02:40:03.774Z,71.91
2016-12-16T02:41:14.100Z,71.62
2016-12-16T02:42:24.117Z,71.72
2016-12-16T02:43:34.441Z,71.81
2016-12-16T02:44:44.760Z,71.91
2016-12-16T02:45:54.777Z,72
2016-12-16T02:47:05.113Z,72.1
2016-12-16T02:48:15.427Z,71.62
2016-12-16T02:49:25.437Z,71.97
2016-12-16T02:50:35.763Z,71.91
2016-12-16T02:51:45.772Z,71.97
2016-12-16T02:52:56.106Z,71.31
2016-12-16T02:54:06.433Z,71.5
2016-12-16T02:55:16.426Z,71.5
2016-12-16T02:56:26.439Z,71.5
2016-12-16T02:57:36.766Z,71.88
2016-12-16T02:58:45.866Z,71.62
2016-12-16T02:59:55.874Z,71.4
2016-12-16T03:01:05.884Z,71.78
2016-12-16T03:32:41.840Z,70.88
2016-12-16T03:33:51.525Z,71.16
2016-12-16T03:35:01.217Z,72.39
2016-12-16T03:36:10.924Z,72.39
2016-12-16T03:37:21.271Z,73.52
2016-12-16T03:38:31.272Z,73.14
2016-12-16T03:39:41.609Z,73.43
2016-12-16T03:40:51.329Z,73.37
2016-12-16T03:42:01.651Z,73.37
2016-12-16T03:43:11.664Z,73.56
2016-12-16T03:44:21.356Z,73.66
2016-12-16T03:45:31.059Z,73.32
2016-12-16T03:46:41.068Z,73.6
2016-12-16T03:47:51.415Z,73.41
2016-12-16T03:49:01.727Z,73.22
2016-12-16T03:50:11.739Z,72.88
2016-12-16T03:51:22.065Z,73.16
2016-12-16T03:52:32.412Z,72.78
2016-12-16T03:53:42.735Z,72.69
2016-12-16T03:54:52.133Z,72.41
2016-12-16T03:56:02.472Z,72.69
2016-12-16T03:57:12.784Z,72.69
2016-12-16T03:58:23.107Z,72.44
2016-12-16T03:59:32.808Z,72.25
2016-12-16T04:00:42.819Z,72.06
2016-12-16T04:01:53.132Z,72.34
2016-12-16T04:03:03.437Z,72.16
2016-12-16T04:04:13.990Z,72.34
2016-12-16T04:05:24.316Z,72.53
2016-12-16T04:06:34.653Z,72.34
2016-12-16T04:07:44.979Z,72.34
2016-12-16T04:08:55.017Z,72.34
2016-12-16T04:10:05.345Z,72.53
2016-12-16T04:11:15.360Z,72.53
2016-12-16T04:12:25.687Z,72.53
2016-12-16T04:13:35.697Z,72.53
2016-12-16T04:14:45.700Z,72.73
2016-12-16T04:15:56.013Z,72.44
2016-12-16T04:17:06.338Z,72.53
2016-12-16T04:18:16.640Z,72.53
2016-12-16T04:19:26.971Z,72.67
2016-12-16T04:20:37.282Z,72.63
2016-12-16T04:21:47.601Z,72.73
2016-12-16T04:22:57.930Z,72.82
2016-12-16T04:24:07.972Z,72.82
2016-12-16T04:25:17.673Z,72.73
2016-12-16T04:26:27.986Z,72.44
2016-12-16T04:27:37.364Z,72.63
2016-12-16T04:28:47.365Z,72.44
2016-12-16T04:29:57.363Z,72.63
2016-12-16T04:31:07.677Z,72.73
2016-12-16T04:32:18.009Z,72.82
2016-12-16T04:33:28.012Z,72.73
2016-12-16T04:34:38.025Z,72.73
2016-12-16T04:35:48.360Z,72.73
2016-12-16T04:36:58.060Z,72.63
2016-12-16T04:38:07.765Z,72.44
2016-12-16T04:39:18.104Z,72.73
2016-12-16T04:40:27.785Z,72.44
2016-12-16T04:41:38.120Z,71.88
2016-12-16T04:42:48.131Z,71.88
2016-12-16T04:43:58.131Z,71.97
2016-12-16T04:45:08.148Z,71.97
2016-12-16T04:46:18.486Z,71.78
2016-12-16T04:47:28.797Z,71.88
2016-12-16T04:48:39.118Z,71.97
2016-12-16T04:49:49.466Z,72.06
2016-12-16T04:50:59.188Z,71.88
2016-12-16T04:52:09.495Z,71.97
2016-12-16T04:53:19.227Z,71.88
2016-12-16T04:54:28.916Z,71.97
2016-12-16T04:55:39.257Z,72.16
2016-12-16T04:56:48.936Z,71.97
2016-12-16T04:57:59.261Z,71.97
2016-12-16T04:59:09.585Z,71.97
2016-12-16T05:00:19.906Z,71.97
2016-12-16T05:01:30.217Z,72.16
2016-12-16T05:02:40.568Z,71.88
2016-12-16T05:03:50.277Z,72.06
2016-12-16T05:05:00.602Z,71.97
2016-12-16T05:06:10.622Z,71.88
2016-12-16T05:07:20.316Z,71.97
2016-12-16T05:08:30.577Z,71.97
2016-12-16T05:09:40.938Z,71.97
2016-12-16T05:10:51.264Z,71.97
2016-12-16T05:12:01.507Z,72.06
2016-12-16T05:13:11.523Z,71.97
2016-12-16T05:14:21.226Z,71.88
2016-12-16T05:15:31.248Z,72.16
2016-12-16T05:16:41.270Z,72.06
2016-12-16T05:17:51.282Z,71.97
2016-12-16T05:19:01.633Z,72.06
2016-12-16T05:20:11.659Z,72.06
2016-12-16T05:21:21.978Z,71.97
2016-12-16T05:22:32.299Z,71.88
2016-12-16T05:23:41.690Z,72.06
2016-12-16T05:24:51.689Z,71.97
2016-12-16T05:26:01.708Z,71.97
2016-12-16T05:27:12.021Z,71.97
2016-12-16T05:28:22.046Z,71.97
2016-12-16T05:29:32.063Z,72.16
2016-12-16T05:30:42.074Z,72.16
2016-12-16T05:31:52.444Z,72.16
2016-12-16T05:33:02.448Z,72.16
2016-12-16T05:34:12.479Z,71.88
2016-12-16T05:35:22.498Z,72.06
2016-12-16T05:36:32.518Z,72.06
2016-12-16T05:37:42.549Z,71.97
2016-12-16T05:38:52.547Z,71.88
2016-12-16T05:40:02.252Z,71.97
2016-12-16T05:41:11.949Z,71.97
2016-12-16T05:42:21.960Z,71.97
2016-12-16T05:43:32.280Z,72.06
2016-12-16T05:44:42.609Z,72.06
2016-12-16T05:45:52.966Z,72.16
2016-12-16T05:47:03.310Z,72.19
2016-12-16T05:48:13.321Z,72.19
2016-12-16T05:49:23.631Z,71.91
2016-12-16T05:50:33.958Z,71.91
2016-12-16T05:51:43.899Z,72
2016-12-16T05:52:54.257Z,72
2016-12-16T05:54:04.270Z,72
2016-12-16T05:55:14.290Z,72.1
2016-12-16T05:56:24.306Z,72.1
2016-12-16T05:57:34.324Z,72.1
2016-12-16T05:58:43.720Z,72.1
2016-12-16T05:59:54.053Z,71.91
2016-12-16T06:01:04.061Z,72
2016-12-16T06:02:13.761Z,72
2016-12-16T06:03:23.798Z,72
2016-12-16T06:04:33.815Z,72
2016-12-16T06:05:43.842Z,72
2016-12-16T06:06:53.532Z,72.1
2016-12-16T06:08:03.869Z,72
2016-12-16T06:09:13.578Z,72.1
2016-12-16T06:10:23.901Z,72
2016-12-16T06:11:34.259Z,72
2016-12-16T06:12:44.634Z,72
2016-12-16T06:13:54.952Z,72.19
2016-12-16T06:15:05.295Z,72
2016-12-16T06:16:15.005Z,72
2016-12-16T06:17:25.339Z,71.91
2016-12-16T06:18:35.346Z,71.91
2016-12-16T06:19:45.669Z,71.72
2016-12-16T06:20:56.023Z,72
2016-12-16T06:22:06.041Z,72.48
2016-12-16T06:23:16.042Z,71.81
2016-12-16T06:24:26.078Z,72
2016-12-16T06:25:35.479Z,72.1
2016-12-16T06:26:45.496Z,72
2016-12-16T06:27:55.505Z,72.19
2016-12-16T06:29:05.523Z,72.1
2016-12-16T06:30:15.867Z,72
2016-12-16T06:31:25.577Z,72
2016-12-16T06:32:35.616Z,71.91
2016-12-16T06:33:45.340Z,71.91
2016-12-16T06:34:55.669Z,71.81
2016-12-16T06:36:06.026Z,72.1
2016-12-16T06:37:16.351Z,72.1
2016-12-16T06:38:26.077Z,72
2016-12-16T06:39:36.419Z,72
2016-12-16T06:40:46.808Z,72
2016-12-16T06:41:57.152Z,72
2016-12-16T06:43:06.856Z,72
2016-12-16T06:44:16.861Z,72.1
2016-12-16T06:45:27.184Z,72
2016-12-16T06:46:37.196Z,72
2016-12-16T06:47:47.523Z,72
2016-12-16T06:48:57.542Z,71.91
2016-12-16T06:50:07.246Z,71.91
2016-12-16T06:51:17.613Z,72.1
2016-12-16T06:52:27.633Z,72
2016-12-16T06:53:37.641Z,71.81
2016-12-16T06:54:47.968Z,71.91
2016-12-16T06:55:57.669Z,72.1
2016-12-16T06:57:07.068Z,72
2016-12-16T06:58:17.422Z,72
2016-12-16T06:59:27.168Z,72
2016-12-16T07:00:37.510Z,72.19
2016-12-16T07:01:47.256Z,72.1
2016-12-16T07:02:57.280Z,71.72
2016-12-16T07:04:07.600Z,71.91
2016-12-16T07:05:17.662Z,72.1
2016-12-16T07:06:28.011Z,72.1
2016-12-16T07:07:38.016Z,71.91
2016-12-16T07:08:48.324Z,72
2016-12-16T07:09:58.639Z,72
2016-12-16T07:11:08.647Z,72.19
2016-12-16T07:12:18.676Z,72.1
2016-12-16T07:13:28.069Z,72.19
2016-12-16T07:14:38.071Z,72.1
2016-12-16T07:15:47.798Z,72.1
2016-12-16T07:16:57.814Z,72.19
2016-12-16T07:18:08.145Z,72.1
2016-12-16T07:19:18.153Z,72
2016-12-16T07:20:28.471Z,72.1
2016-12-16T07:21:38.184Z,72.1
2016-12-16T07:22:47.885Z,72.19
2016-12-16T07:23:58.210Z,72.19
2016-12-16T07:25:07.905Z,72.19
2016-12-16T07:26:17.289Z,72.19
2016-12-16T07:27:27.321Z,72.1
2016-12-16T07:28:37.657Z,72.1
2016-12-16T07:29:47.668Z,72.1
2016-12-16T07:30:58.004Z,72.19
2016-12-16T07:32:08.067Z,72.19
2016-12-16T07:33:17.769Z,72.29
2016-12-16T07:34:28.099Z,72.29
2016-12-16T07:35:38.414Z,72.19
2016-12-16T07:36:48.735Z,72.1
2016-12-16T07:37:59.060Z,72.19
2016-12-16T07:39:09.391Z,72.19
2016-12-16T07:40:19.769Z,72.29
2016-12-16T07:41:30.104Z,72.1
2016-12-16T07:42:40.414Z,72.29
2016-12-16T07:43:49.814Z,72.19
2016-12-16T07:44:59.825Z,71.72
2016-12-16T07:46:10.166Z,71.81
2016-12-16T07:47:20.174Z,71.72
2016-12-16T07:48:29.880Z,71.81
2016-12-16T07:49:39.882Z,71.81
2016-12-16T07:50:50.200Z,72.29
2016-12-16T07:52:00.205Z,71.72
2016-12-16T07:53:09.902Z,71.62
2016-12-16T07:54:19.609Z,71.91
2016-12-16T07:55:29.617Z,72
2016-12-16T07:56:39.622Z,72.1
2016-12-16T07:57:49.645Z,71.72
2016-12-16T07:58:59.986Z,72
2016-12-16T08:00:09.993Z,71.95
2016-12-16T08:01:19.698Z,71.85
2016-12-16T08:02:29.697Z,71.85
2016-12-16T08:03:39.728Z,72.04
2016-12-16T08:04:49.729Z,71.95
2016-12-16T08:05:59.746Z,71.57
2016-12-16T08:07:09.452Z,71.57
2016-12-16T08:08:19.453Z,71.76
2016-12-16T08:09:28.539Z,71.57
2016-12-16T08:10:38.222Z,71.38
2016-12-16T08:11:48.249Z,71.95
2016-12-16T08:12:58.277Z,71.57
2016-12-16T08:14:08.603Z,71.66
2016-12-16T08:15:18.310Z,71.38
2016-12-16T08:16:28.024Z,71.19
2016-12-16T08:17:38.033Z,71.38
2016-12-16T08:18:48.400Z,71.66
2016-12-16T08:19:58.736Z,71.66
2016-12-16T08:21:09.078Z,71.19
2016-12-16T08:22:19.399Z,71.28
2016-12-16T08:23:29.412Z,71.57
2016-12-16T08:24:39.737Z,71.85
2016-12-16T08:25:50.063Z,71.85
2016-12-16T08:26:59.771Z,71.85
2016-12-16T08:28:09.802Z,71.28
2016-12-16T08:29:20.118Z,71.22
2016-12-16T08:30:30.450Z,71.38
2016-12-16T08:31:40.774Z,71.89
2016-12-16T08:32:51.094Z,71.32
2016-12-16T08:34:00.791Z,71.6
2016-12-16T08:35:10.803Z,71.7
2016-12-16T08:36:20.828Z,71.6
2016-12-16T08:37:30.863Z,71.6
2016-12-16T08:38:41.207Z,71.6
2016-12-16T08:39:51.568Z,71.7
2016-12-16T08:41:01.896Z,71.6
2016-12-16T08:42:11.608Z,71.51
2016-12-16T08:43:21.641Z,71.7
2016-12-16T08:44:31.390Z,71.8
2016-12-16T08:45:41.418Z,71.8
2016-12-16T08:46:51.753Z,71.89
2016-12-16T08:48:02.072Z,71.8
2016-12-16T08:49:12.413Z,71.98
2016-12-16T08:50:22.425Z,71.7
2016-12-16T08:51:32.145Z,71.51
2016-12-16T08:52:42.478Z,71.8
2016-12-16T08:53:52.486Z,71.6
2016-12-16T08:55:02.835Z,71.7
2016-12-16T08:56:12.877Z,71.6
2016-12-16T08:57:23.210Z,71.7
2016-12-16T08:58:33.528Z,71.7
2016-12-16T08:59:43.548Z,71.7
2016-12-16T09:00:53.879Z,71.89
2016-12-16T09:02:04.217Z,71.89
2016-12-16T09:03:14.558Z,71.89
2016-12-16T09:04:24.274Z,71.6
2016-12-16T09:05:34.283Z,71.6
2016-12-16T09:06:44.598Z,71.55
2016-12-16T09:07:54.605Z,71.7
2016-12-16T09:09:04.626Z,70.98
2016-12-16T09:10:15.000Z,71.36
2016-12-16T09:11:25.021Z,71.36
2016-12-16T09:12:35.026Z,71.36
2016-12-16T09:13:44.729Z,71.17
2016-12-16T09:14:54.785Z,71.07
2016-12-16T09:16:05.115Z,71.07
2016-12-16T09:17:14.527Z,70.98
2016-12-16T09:18:24.545Z,71.45
2016-12-16T09:19:34.885Z,71.45
2016-12-16T09:20:44.909Z,71.45
2016-12-16T09:21:55.235Z,71.26
2016-12-16T09:23:05.242Z,71.64
2016-12-16T09:24:15.250Z,71.17
2016-12-16T09:25:25.287Z,71.36
2016-12-16T09:26:35.604Z,71.17
2016-12-16T09:27:45.607Z,71.17
2016-12-16T09:28:55.925Z,71.26
2016-12-16T09:30:05.967Z,71.26
2016-12-16T09:31:15.668Z,71.55
2016-12-16T09:32:26.028Z,71.36
2016-12-16T09:33:36.354Z,71.26
2016-12-16T09:34:46.396Z,71.36
2016-12-16T09:35:56.411Z,71.26
2016-12-16T09:37:06.427Z,71.64
2016-12-16T09:38:16.795Z,71.11
2016-12-16T09:39:27.137Z,71.17
2016-12-16T09:40:37.148Z,71.01
2016-12-16T09:41:47.180Z,71.2
2016-12-16T09:42:57.508Z,70.82
2016-12-16T09:44:07.522Z,70.73
2016-12-16T09:45:17.858Z,70.54
2016-12-16T09:46:27.861Z,70.63
2016-12-16T09:47:38.187Z,70.92
2016-12-16T09:48:47.584Z,71.2
2016-12-16T09:49:57.908Z,70.82
2016-12-16T09:51:08.228Z,70.73
2016-12-16T09:52:17.644Z,70.54
2016-12-16T09:53:27.974Z,70.73
2016-12-16T09:54:37.072Z,70.82
2016-12-16T09:55:47.406Z,70.63
2016-12-16T09:56:57.717Z,71.01
2016-12-16T09:58:07.757Z,71.01
2016-12-16T09:59:17.755Z,71.01
2016-12-16T10:00:27.765Z,70.92
2016-12-16T10:01:38.122Z,70.82
2016-12-16T10:02:48.440Z,70.73
2016-12-16T10:03:58.755Z,71.01
2016-12-16T10:05:09.100Z,70.82
2016-12-16T10:06:19.469Z,71.01
2016-12-16T10:07:29.481Z,71.01
2016-12-16T10:08:39.822Z,70.76
2016-12-16T10:09:49.837Z,70.95
2016-12-16T10:10:59.910Z,70.57
2016-12-16T10:12:09.933Z,70.76
2016-12-16T10:13:19.950Z,70.67
2016-12-16T10:14:30.272Z,70.86
2016-12-16T10:15:39.994Z,70.95
2016-12-16T10:16:50.305Z,70.67
2016-12-16T10:18:00.636Z,70.29
2016-12-16T10:19:10.658Z,70.67
2016-12-16T10:20:20.289Z,70.48
2016-12-16T10:21:30.622Z,70.57
2016-12-16T10:22:40.938Z,70.86
2016-12-16T10:23:51.252Z,70.76
2016-12-16T10:25:01.601Z,70.38
2016-12-16T10:26:11.959Z,70.51
2016-12-16T10:27:22.291Z,70.42
2016-12-16T10:28:32.621Z,70.7
2016-12-16T10:29:42.645Z,70.86
2016-12-16T10:30:52.990Z,70.95
2016-12-16T10:32:03.006Z,70.76
2016-12-16T10:33:13.027Z,71.04
2016-12-16T10:34:23.046Z,71.04
2016-12-16T10:35:32.752Z,71.18
2016-12-16T10:36:42.762Z,70.76
2016-12-16T10:37:52.776Z,70.89
2016-12-16T10:39:02.786Z,70.89
2016-12-16T10:40:13.138Z,71.27
2016-12-16T10:41:22.849Z,70.42
2016-12-16T10:42:33.175Z,70.51
2016-12-16T10:43:43.187Z,70.7
2016-12-16T10:44:53.196Z,70.32
2016-12-16T10:46:03.532Z,70.7
2016-12-16T10:47:13.577Z,70.79
2016-12-16T10:48:23.594Z,70.51
2016-12-16T10:49:33.605Z,70.61
2016-12-16T10:50:43.931Z,70.51
2016-12-16T10:51:54.254Z,70.7
2016-12-16T10:53:03.964Z,70.99
2016-12-16T10:54:13.971Z,70.89
2016-12-16T10:55:23.996Z,71.08
2016-12-16T10:56:34.314Z,70.99
2016-12-16T10:57:44.321Z,70.99
2016-12-16T10:58:54.660Z,71.08
2016-12-16T11:00:04.669Z,71.08
2016-12-16T11:01:14.995Z,71.12
2016-12-16T11:02:24.432Z,71.08
2016-12-16T11:03:34.146Z,71.12
2016-12-16T11:04:44.484Z,71.08
2016-12-16T11:05:54.516Z,71.12
2016-12-16T11:07:04.835Z,71.08
2016-12-16T11:08:14.535Z,70.99
2016-12-16T11:09:24.257Z,71.08
2016-12-16T11:10:34.578Z,70.93
2016-12-16T11:11:44.275Z,70.83
2016-12-16T11:12:54.604Z,70.83
2016-12-16T11:14:04.931Z,70.83
2016-12-16T11:15:15.268Z,71.12
2016-12-16T11:16:25.282Z,70.93
2016-12-16T11:17:35.604Z,71.12
2016-12-16T11:18:45.966Z,71.22
2016-12-16T11:19:56.295Z,70.83
2016-12-16T11:21:06.624Z,70.64
2016-12-16T11:22:16.338Z,71.12
2016-12-16T11:23:26.357Z,70.74
2016-12-16T11:24:36.677Z,70.74
2016-12-16T11:25:46.378Z,70.93
2016-12-16T11:26:56.405Z,70.97
2016-12-16T11:28:06.416Z,70.93
2016-12-16T11:29:16.736Z,71.06
2016-12-16T11:30:26.743Z,71.15
2016-12-16T11:31:36.766Z,71.06
2016-12-16T11:32:46.797Z,70.87
2016-12-16T11:33:56.814Z,70.68
2016-12-16T11:35:06.825Z,70.83
2016-12-16T11:36:16.833Z,70.97
2016-12-16T11:37:27.155Z,71.15
2016-12-16T11:38:36.859Z,71.22
2016-12-16T11:39:47.191Z,71.02
2016-12-16T11:40:57.204Z,71.12
2016-12-16T11:42:07.536Z,71.12
2016-12-16T11:43:17.873Z,71.02
2016-12-16T11:44:28.199Z,71.12
2016-12-16T11:45:38.226Z,71.02
2016-12-16T11:46:48.572Z,71.02
2016-12-16T11:47:58.931Z,71.12
2016-12-16T11:49:09.310Z,70.83
2016-12-16T11:50:19.323Z,70.83
2016-12-16T11:51:29.655Z,70.83
2016-12-16T11:52:39.992Z,70.93
2016-12-16T11:53:50.333Z,70.83
2016-12-16T11:55:00.660Z,70.83
2016-12-16T11:56:10.067Z,71.31
2016-12-16T11:57:20.084Z,71.31
2016-12-16T11:58:30.111Z,70.83
2016-12-16T11:59:40.435Z,70.93
2016-12-16T12:00:50.493Z,71.02
2016-12-16T12:02:00.201Z,71.12
2016-12-16T12:03:10.518Z,70.74
2016-12-16T12:04:20.220Z,70.93
2016-12-16T12:05:30.551Z,71.22
2016-12-16T12:06:40.275Z,71.02
2016-12-16T12:07:49.994Z,71.02
2016-12-16T12:09:00.005Z,71.12
2016-12-16T12:10:10.334Z,71.31
2016-12-16T12:11:20.368Z,71.12
2016-12-16T12:12:30.691Z,70.64
2016-12-16T12:13:40.393Z,70.64
2016-12-16T12:14:50.104Z,71.02
2016-12-16T12:16:00.126Z,70.83
2016-12-16T12:17:09.824Z,70.93
2016-12-16T12:18:20.146Z,69.25
2016-12-16T12:19:29.839Z,67.19
2016-12-16T12:20:39.893Z,66.5
2016-12-16T12:21:49.919Z,65.89
2016-12-16T12:22:59.942Z,65.23
2016-12-16T12:24:09.956Z,65.07
2016-12-16T12:25:19.971Z,65.48
2016-12-16T12:26:29.994Z,65.39
2016-12-16T12:27:40.013Z,65.96
2016-12-16T12:28:50.032Z,67.65
2016-12-16T12:30:00.048Z,68.44
2016-12-16T12:31:10.110Z,69.45
2016-12-16T12:32:20.131Z,69.89
2016-12-16T12:33:30.155Z,69.89
2016-12-16T12:34:40.466Z,69.32
2016-12-16T12:35:50.791Z,69.45
2016-12-16T12:37:01.123Z,69.17
2016-12-16T12:38:11.476Z,69.04
2016-12-16T12:39:21.496Z,69.79
2016-12-16T12:40:31.819Z,70.08
2016-12-16T12:41:41.519Z,69.95
2016-12-16T12:42:50.309Z,70.62
2016-12-16T12:44:00.349Z,70.81
2016-12-16T12:45:10.677Z,70.97
2016-12-16T12:46:20.704Z,71.15
2016-12-16T12:47:30.739Z,71.15
2016-12-16T12:48:41.065Z,70.97
2016-12-16T12:49:50.804Z,70.58
2016-12-16T12:51:01.128Z,71.15
2016-12-16T12:52:11.440Z,71.34
2016-12-16T12:53:21.148Z,71.91
2016-12-16T12:54:31.471Z,71.44
2016-12-16T12:55:41.486Z,71.41
2016-12-16T12:56:51.818Z,71.12
2016-12-16T12:58:02.150Z,71.41
2016-12-16T12:59:12.157Z,71.59
2016-12-16T13:00:22.173Z,71.41
2016-12-16T13:01:32.191Z,71.41
2016-12-16T13:02:42.216Z,71.59
2016-12-16T13:03:52.548Z,71.88
2016-12-16T13:05:02.271Z,71.5
2016-12-16T13:06:12.598Z,71.59
2016-12-16T13:07:22.919Z,72.07
2016-12-16T13:08:32.965Z,71.78
2016-12-16T13:09:43.296Z,71.46
2016-12-16T13:10:53.307Z,71.84
2016-12-16T13:12:03.318Z,71.75
2016-12-16T13:13:13.336Z,72.03
2016-12-16T13:14:23.665Z,71.84
2016-12-16T13:15:33.995Z,71.46
2016-12-16T13:16:44.038Z,72.03
2016-12-16T13:17:54.379Z,72.03
2016-12-16T13:19:04.711Z,71.66
2016-12-16T13:20:14.413Z,72.03
2016-12-16T13:21:24.125Z,72.03
2016-12-16T13:22:34.375Z,71.56
2016-12-16T13:23:44.706Z,71.75
2016-12-16T13:24:54.100Z,71.75
2016-12-16T13:26:04.415Z,72.32
2016-12-16T13:27:14.422Z,72.03
2016-12-16T13:28:24.774Z,72.22
2016-12-16T13:29:34.819Z,72.22
2016-12-16T13:30:44.839Z,71.84
2016-12-16T13:31:54.854Z,71.84
2016-12-16T13:33:05.186Z,72.13
2016-12-16T13:34:15.522Z,71.75
2016-12-16T13:35:25.869Z,72.19
2016-12-16T13:36:35.892Z,71.94
2016-12-16T13:37:45.598Z,72.19
2016-12-16T13:38:55.305Z,71.81
2016-12-16T13:40:05.020Z,72.41
2016-12-16T13:41:15.357Z,72
2016-12-16T13:42:25.691Z,72.09
2016-12-16T13:43:36.010Z,72.38
2016-12-16T13:44:46.357Z,72.56
2016-12-16T13:45:56.698Z,72.28
2016-12-16T13:47:06.747Z,72.38
2016-12-16T13:48:16.767Z,72.28
2016-12-16T13:49:26.786Z,72.38
2016-12-16T13:50:36.477Z,72.28
2016-12-16T13:51:46.497Z,72.38
2016-12-16T13:52:56.839Z,72.19
2016-12-16T13:54:07.906Z,72.28
2016-12-16T13:55:17.928Z,72.19
2016-12-16T13:56:27.948Z,72
2016-12-16T13:57:38.321Z,72.75
2016-12-16T13:58:48.347Z,72.09
2016-12-16T13:59:58.781Z,73.04
2016-12-16T14:01:08.818Z,72.95
2016-12-16T14:02:19.157Z,72.91
2016-12-16T14:03:29.489Z,72.91
2016-12-16T14:04:39.505Z,72.72
2016-12-16T14:05:49.871Z,72.63
2016-12-16T14:06:59.894Z,72.72
2016-12-16T14:08:10.074Z,72.53
2016-12-16T14:09:20.155Z,72.53
2016-12-16T14:10:30.189Z,72.53
2016-12-16T14:11:40.259Z,72.44
2016-12-16T14:12:50.702Z,72.53
2016-12-16T14:14:01.027Z,72.34
2016-12-16T14:15:10.615Z,72.63
2016-12-16T14:16:20.666Z,72.4
2016-12-16T14:17:31.009Z,72.59
2016-12-16T14:18:41.041Z,72.68
2016-12-16T14:19:51.074Z,72.59
2016-12-16T14:21:01.116Z,72.78
2016-12-16T14:22:11.454Z,72.68
2016-12-16T14:23:21.937Z,72.97
2016-12-16T14:24:31.676Z,72.59
2016-12-16T14:25:42.067Z,72.88
2016-12-16T14:26:52.407Z,73.07
2016-12-16T14:28:02.137Z,72.88
2016-12-16T14:29:12.174Z,72.88
2016-12-16T14:30:22.201Z,72.88
2016-12-16T14:31:32.233Z,72.45
2016-12-16T14:32:42.925Z,72.93
2016-12-16T14:33:53.282Z,72.93
2016-12-16T14:35:03.642Z,72.84
2016-12-16T14:36:14.058Z,72.84
2016-12-16T14:37:24.099Z,72.93
2016-12-16T14:38:34.128Z,72.84
2016-12-16T14:39:44.571Z,72.93
2016-12-16T14:40:54.953Z,73.03
2016-12-16T14:42:05.335Z,72.64
2016-12-16T14:43:15.510Z,72.84
2016-12-16T14:44:25.536Z,72.84
2016-12-16T14:45:35.584Z,72.74
2016-12-16T14:46:45.922Z,73.03
2016-12-16T14:47:56.285Z,72.64
2016-12-16T14:49:06.315Z,73.12
2016-12-16T14:50:16.668Z,73.12
2016-12-16T14:51:26.698Z,72.93
2016-12-16T14:52:36.165Z,73.03
2016-12-16T14:53:46.229Z,72.84
2016-12-16T14:54:56.608Z,73.22
2016-12-16T14:56:06.614Z,72.8
2016-12-16T14:57:16.969Z,72.61
2016-12-16T14:58:27.311Z,72.89
2016-12-16T14:59:37.652Z,72.89
2016-12-16T15:00:47.088Z,72.99
2016-12-16T15:01:58.354Z,72.71
2016-12-16T15:03:08.449Z,72.8
2016-12-16T15:04:18.797Z,72.8
2016-12-16T15:05:28.849Z,72.71
2016-12-16T15:06:39.230Z,72.8
2016-12-16T15:07:49.561Z,72.8
2016-12-16T15:08:59.982Z,72.89
2016-12-16T15:10:10.309Z,72.61
2016-12-16T15:11:20.322Z,72.8
2016-12-16T15:12:30.663Z,72.8
2016-12-16T15:13:41.000Z,72.52
2016-12-16T15:14:51.014Z,72.8
2016-12-16T15:16:00.403Z,72.33
2016-12-16T15:17:10.449Z,72.8
2016-12-16T15:18:20.800Z,72.52
2016-12-16T15:19:30.889Z,72.8
2016-12-16T15:20:40.922Z,72.33
2016-12-16T15:21:51.296Z,72.52
2016-12-16T15:23:01.674Z,72.52
2016-12-16T15:24:11.392Z,72.52
2016-12-16T15:25:21.417Z,72.33
2016-12-16T15:26:31.444Z,72.48
2016-12-16T15:27:41.172Z,72.29
2016-12-16T15:28:51.518Z,72
2016-12-16T15:30:01.881Z,72
2016-12-16T15:31:12.209Z,72.1
2016-12-16T15:32:22.227Z,72
2016-12-16T15:33:31.934Z,72
2016-12-16T15:34:41.970Z,72.96
2016-12-16T15:35:52.309Z,72.1
2016-12-16T15:37:02.357Z,72.38
2016-12-16T15:38:12.674Z,72.38
2016-12-16T15:39:22.691Z,72.38
2016-12-16T15:40:33.072Z,72.57
2016-12-16T15:41:42.770Z,72.57